• Join FlightAware (Why Join?)
  • Login
  • US Flag 
11:39AM EDT


 

Airport Tracker/Info


-or-


 

Live Flight TrackerFlight Track Log ✈ CTL18 ✈ 02-May-2013 ✈ KPTK - KMBS

Flight Track Log - Related Links

Times and Time Zones

All times are in EDT time to prevent confusion due to time zone crossing. See the CTL18 flight status page for this flight to view local times or setup timezone preferences in your user account.

Time Position Orientation Groundspeed Altitude Reporting Facility
EDT Latitude Longitude Course Direction KTS MPH feet Rate Location/Type
07:13PM 42.6672 -83.4069 43° Northeast 100 115 1,500  Level Cleveland Center
07:14PM 42.6867 -83.3825 43° Northeast 145 167 2,600 900 Climbing Cleveland Center
07:16PM 42.7211 -83.3954 345° North  Level FlightAware Approximate
07:23PM 42.9537 -83.4257 321° Northwest  Level FlightAware Approximate
07:24PM 42.9811 -83.4559 321° Northwest  Level FlightAware Approximate
07:25PM 43.0085 -83.4861 321° Northwest  Level FlightAware Approximate
07:26PM 43.0359 -83.5163 321° Northwest  Level FlightAware Approximate
07:27PM 43.0633 -83.5465 321° Northwest  Level FlightAware Approximate
07:28PM 43.0906 -83.5768 321° Northwest  Level FlightAware Approximate
07:29PM 43.1180 -83.6071 321° Northwest  Level FlightAware Approximate
07:30PM 43.1453 -83.6374 321° Northwest  Level FlightAware Approximate
07:31PM 43.1727 -83.6678 321° Northwest  Level FlightAware Approximate
07:32PM 43.2000 -83.6981 321° Northwest  Level FlightAware Approximate
07:33PM 43.2269 -83.7292 318° Northwest  Level FlightAware Approximate
07:34PM 43.2532 -83.7613 318° Northwest  Level FlightAware Approximate
07:35PM 43.2795 -83.7934 318° Northwest  Level FlightAware Approximate
07:36PM 43.3058 -83.8255 318° Northwest  Level FlightAware Approximate
07:37PM 43.3321 -83.8576 318° Northwest  Level FlightAware Approximate
07:38PM 43.3584 -83.8898 318° Northwest  Level FlightAware Approximate
07:39PM 43.3861 -83.9194 324° Northwest  Level FlightAware Approximate
07:40PM 43.4146 -83.9479 324° Northwest  Level FlightAware Approximate
07:41PM 43.4431 -83.9763 324° Northwest  Level FlightAware Approximate
07:42PM 43.4715 -84.0048 324° Northwest  Level FlightAware Approximate
07:43PM 43.5000 -84.0333 324° Northwest  Level FlightAware Approximate